Time;durP1;ratioP1;P1;durP2;ratioP2;P2;SDS_P1;SDS_P2;PMS_P1;PMS_P2;Temp;Humidity;BMP_temperature;BMP_pressure;BME280_temperature;BME280_humidity;BME280_pressure;Samples;Min_cycle;Max_cycle;Signal;HPM_P1;HPM_P2
2023/06/16 04:05:18;;;;;;;3.60;3.30;;;13.90;99.90;;;;;;5564481;23;20469;-61
2023/06/16 04:07:43;;;;;;;3.17;2.97;;;13.90;99.90;;;;;;5014517;28;20420;-63
2023/06/16 04:10:09;;;;;;;2.97;2.70;;;13.90;99.90;;;;;;5014812;28;20171;-64
2023/06/16 04:12:35;;;;;;;3.40;3.10;;;14.00;99.90;;;;;;5012735;28;20550;-62
2023/06/16 04:15:02;;;;;;;2.83;2.60;;;14.10;99.90;;;;;;5012967;28;20437;-63
2023/06/16 04:17:28;;;;;;;3.50;3.20;;;14.20;99.90;;;;;;5014766;28;20173;-61
2023/06/16 04:19:53;;;;;;;3.00;2.80;;;14.30;99.90;;;;;;5015140;28;20408;-63
2023/06/16 04:22:19;;;;;;;2.53;2.33;;;14.40;99.90;;;;;;5014646;28;20632;-63
2023/06/16 04:24:45;;;;;;;4.13;3.73;;;14.60;99.90;;;;;;5014002;28;20193;-61
2023/06/16 04:27:10;;;;;;;3.27;3.07;;;14.80;99.90;;;;;;5014297;28;20298;-62
2023/06/16 04:29:41;;;;;;;3.50;3.20;;;15.10;99.90;;;;;;4994939;28;20180;-63
2023/06/16 04:32:10;;;;;;;3.83;3.53;;;15.20;99.90;;;;;;4994858;28;20580;-61
2023/06/16 04:34:36;;;;;;;3.30;3.10;;;15.20;99.90;;;;;;4993221;28;20792;-64
2023/06/16 04:37:02;;;;;;;3.30;3.10;;;15.30;99.90;;;;;;4996877;28;20506;-62
2023/06/16 04:39:28;;;;;;;3.13;2.83;;;15.50;99.90;;;;;;5008034;28;20817;-61
2023/06/16 04:41:53;;;;;;;3.57;3.27;;;15.70;99.90;;;;;;5004128;28;20226;-60
2023/06/16 04:44:19;;;;;;;6.37;2.97;;;15.90;99.90;;;;;;4994488;28;20231;-61
2023/06/16 04:46:45;;;;;;;2.90;2.63;;;16.10;99.90;;;;;;4994286;28;20223;-60
2023/06/16 04:49:10;;;;;;;4.17;3.50;;;16.20;99.90;;;;;;5007102;28;20233;-61
2023/06/16 04:51:36;;;;;;;3.17;2.97;;;16.30;99.90;;;;;;5013774;28;20225;-63
2023/06/16 04:54:01;;;;;;;4.17;3.73;;;16.50;99.90;;;;;;5013590;28;20218;-60
2023/06/16 04:56:30;;;;;;;3.67;3.40;;;16.60;99.90;;;;;;5011977;28;20183;-62
2023/06/16 04:58:56;;;;;;;3.60;3.30;;;16.60;99.70;;;;;;5014023;28;20251;-60
2023/06/16 05:01:26;;;;;;;5.40;3.57;;;16.70;99.60;;;;;;5013853;28;20389;-63
2023/06/16 05:03:52;;;;;;;3.73;3.33;;;16.70;99.40;;;;;;5012921;28;20546;-63
2023/06/16 05:06:17;;;;;;;4.50;4.17;;;16.70;99.40;;;;;;5013368;28;20481;-63
2023/06/16 05:08:43;;;;;;;2.77;2.53;;;16.70;99.70;;;;;;5013859;28;20756;-66
2023/06/16 05:11:08;;;;;;;3.80;3.50;;;16.60;99.90;;;;;;5013786;28;21087;-67
2023/06/16 05:13:34;;;;;;;4.10;3.80;;;16.60;99.90;;;;;;5013316;28;20187;-63
2023/06/16 05:16:00;;;;;;;4.60;3.70;;;16.70;99.90;;;;;;5013563;28;20226;-69
2023/06/16 05:18:25;;;;;;;4.50;4.10;;;16.70;99.90;;;;;;5013355;28;20183;-66
2023/06/16 05:20:51;;;;;;;4.50;3.27;;;16.70;99.90;;;;;;5013501;28;20172;-65
2023/06/16 05:23:16;;;;;;;3.43;3.13;;;16.80;99.90;;;;;;5013237;28;20177;-65
2023/06/16 05:25:42;;;;;;;3.90;3.60;;;16.80;99.90;;;;;;5013021;28;20237;-67
2023/06/16 05:28:08;;;;;;;3.90;3.60;;;16.80;99.90;;;;;;5013668;28;20175;-64
2023/06/16 05:30:33;;;;;;;4.77;4.30;;;16.90;99.90;;;;;;5013292;28;20199;-62
2023/06/16 05:32:59;;;;;;;5.03;4.53;;;17.00;99.90;;;;;;5013400;28;20180;-65
2023/06/16 05:35:24;;;;;;;3.80;3.47;;;17.30;99.90;;;;;;5013160;28;20260;-64
2023/06/16 05:37:50;;;;;;;3.60;3.20;;;17.90;98.80;;;;;;5012512;28;20225;-64
2023/06/16 05:40:15;;;;;;;2.50;2.30;;;18.50;97.80;;;;;;5013371;28;20680;-63
2023/06/16 05:42:41;;;;;;;3.23;3.03;;;19.10;96.60;;;;;;5013531;28;20220;-61
2023/06/16 05:45:07;;;;;;;4.07;3.37;;;19.50;95.50;;;;;;5012569;28;20198;-61
2023/06/16 05:47:33;;;;;;;3.53;2.80;;;19.60;94.20;;;;;;5013161;28;20179;-64
2023/06/16 05:49:59;;;;;;;2.97;2.70;;;19.50;94.00;;;;;;5013424;28;20409;-61
2023/06/16 05:52:25;;;;;;;3.40;3.10;;;19.60;93.90;;;;;;5013390;28;20254;-66
2023/06/16 05:54:51;;;;;;;2.60;2.40;;;19.60;93.90;;;;;;5012840;28;20436;-66
2023/06/16 05:57:16;;;;;;;4.70;3.57;;;19.70;93.70;;;;;;5013227;28;20178;-64
2023/06/16 05:59:42;;;;;;;3.63;3.27;;;19.60;93.50;;;;;;5013472;28;20204;-66
2023/06/16 06:02:08;;;;;;;4.30;3.33;;;19.50;93.60;;;;;;5012890;28;20175;-63
2023/06/16 06:04:33;;;;;;;4.20;3.80;;;19.30;93.60;;;;;;5012141;28;20195;-64
2023/06/16 06:07:00;;;;;;;3.63;2.87;;;19.40;93.70;;;;;;5012966;28;20748;-62
2023/06/16 06:09:26;;;;;;;3.60;3.30;;;19.50;93.60;;;;;;5016531;28;20179;-64
2023/06/16 06:11:52;;;;;;;3.40;3.10;;;19.60;93.40;;;;;;5016256;28;20861;-65
2023/06/16 06:14:18;;;;;;;3.83;3.23;;;19.70;93.00;;;;;;5016387;28;20419;-62
2023/06/16 06:16:44;;;;;;;3.60;3.03;;;19.70;93.00;;;;;;5015569;28;20274;-65
2023/06/16 06:19:10;;;;;;;3.10;2.80;;;19.70;93.40;;;;;;5016715;28;20417;-61
2023/06/16 06:21:38;;;;;;;3.17;2.87;;;19.80;93.30;;;;;;5016816;28;20432;-61
2023/06/16 06:24:05;;;;;;;6.30;3.47;;;20.00;92.90;;;;;;5016160;28;20431;-63
2023/06/16 06:26:30;;;;;;;3.00;2.80;;;20.20;92.80;;;;;;5016235;28;20465;-62
2023/06/16 06:28:56;;;;;;;3.70;3.10;;;20.40;92.70;;;;;;5016661;28;20974;-63
2023/06/16 06:31:21;;;;;;;3.73;3.13;;;20.50;92.20;;;;;;5016269;28;20179;-65
2023/06/16 06:33:47;;;;;;;2.80;2.60;;;20.60;91.90;;;;;;5016215;28;20179;-65
2023/06/16 06:36:25;;;;;;;3.60;3.30;;;20.60;91.50;;;;;;5016436;28;20194;-73
2023/06/16 06:38:51;;;;;;;3.63;3.30;;;20.50;91.60;;;;;;5016421;28;20171;-63
2023/06/16 06:41:17;;;;;;;4.57;3.07;;;20.50;92.30;;;;;;5016464;28;20501;-60
2023/06/16 06:43:43;;;;;;;3.20;2.90;;;20.50;91.80;;;;;;5016011;28;20779;-64
2023/06/16 06:46:08;;;;;;;4.13;3.77;;;20.60;92.10;;;;;;5015939;28;20458;-65
2023/06/16 06:48:34;;;;;;;5.30;4.00;;;20.70;91.60;;;;;;5016339;28;20178;-64
2023/06/16 06:51:00;;;;;;;3.00;2.80;;;20.80;90.90;;;;;;5016298;28;20179;-62
2023/06/16 06:53:25;;;;;;;2.67;2.47;;;20.80;90.80;;;;;;5015727;28;20640;-64
2023/06/16 06:55:51;;;;;;;4.10;3.20;;;21.00;90.90;;;;;;5016006;28;20206;-63
2023/06/16 06:58:16;;;;;;;2.93;2.63;;;21.20;90.70;;;;;;5016153;28;20241;-66
2023/06/16 07:00:42;;;;;;;3.33;3.03;;;21.30;90.30;;;;;;5015774;28;20183;-61
2023/06/16 07:03:07;;;;;;;4.70;3.03;;;21.30;90.20;;;;;;5015723;28;20190;-62
2023/06/16 07:05:34;;;;;;;3.43;3.13;;;21.40;90.30;;;;;;5015570;28;20193;-62
2023/06/16 07:08:01;;;;;;;2.50;2.37;;;21.50;90.50;;;;;;5016063;28;20247;-67
2023/06/16 07:10:32;;;;;;;3.23;2.93;;;21.80;90.80;;;;;;5015868;28;20408;-64
2023/06/16 07:13:01;;;;;;;3.80;3.13;;;22.00;88.60;;;;;;5015363;28;20473;-61
2023/06/16 07:15:26;;;;;;;2.37;2.27;;;21.80;88.30;;;;;;5015187;28;20437;-65
2023/06/16 07:17:52;;;;;;;2.83;2.60;;;22.00;89.40;;;;;;5015800;28;20866;-63
2023/06/16 07:20:17;;;;;;;3.27;3.07;;;22.10;87.70;;;;;;5014880;28;20179;-62
2023/06/16 07:22:45;;;;;;;3.80;3.20;;;22.30;88.30;;;;;;5015548;28;20192;-63
2023/06/16 07:25:11;;;;;;;3.60;2.70;;;22.60;87.10;;;;;;5015202;28;20260;-66
2023/06/16 07:27:37;;;;;;;2.73;2.53;;;23.00;86.80;;;;;;5015819;28;20747;-61
2023/06/16 07:30:07;;;;;;;5.03;2.60;;;23.60;83.60;;;;;;5015224;28;20454;-62
2023/06/16 07:32:33;;;;;;;3.63;3.10;;;24.20;83.10;;;;;;5015428;28;20608;-64
2023/06/16 07:34:58;;;;;;;2.47;2.27;;;25.10;80.50;;;;;;5015391;28;20447;-63
2023/06/16 07:37:24;;;;;;;3.50;3.20;;;25.80;79.00;;;;;;5015590;28;20625;-63
2023/06/16 07:39:50;;;;;;;3.43;3.13;;;26.70;76.60;;;;;;5014102;28;20253;-63
2023/06/16 07:42:16;;;;;;;2.53;2.33;;;27.60;72.20;;;;;;5004873;28;20693;-61
2023/06/16 07:44:42;;;;;;;3.17;2.97;;;28.40;69.00;;;;;;5014559;28;20203;-62
2023/06/16 07:47:07;;;;;;;3.70;3.50;;;29.60;66.30;;;;;;5014727;28;20952;-64
2023/06/16 07:49:33;;;;;;;3.67;3.37;;;30.80;62.60;;;;;;5014828;28;20418;-63
2023/06/16 07:51:59;;;;;;;3.47;3.23;;;31.90;58.50;;;;;;5015104;28;20177;-63
2023/06/16 07:54:25;;;;;;;3.93;3.63;;;32.20;55.80;;;;;;5014352;28;20665;-61
2023/06/16 07:56:51;;;;;;;3.60;3.30;;;32.90;56.00;;;;;;5014794;28;20410;-64
2023/06/16 07:59:16;;;;;;;3.07;2.83;;;33.60;53.30;;;;;;5013363;28;20438;-65
2023/06/16 08:01:44;;;;;;;3.03;2.83;;;34.00;51.40;;;;;;5014334;28;20179;-63
2023/06/16 08:04:10;;;;;;;3.60;3.40;;;34.00;51.50;;;;;;5014328;28;20187;-62
2023/06/16 08:06:36;;;;;;;3.37;3.17;;;34.30;51.30;;;;;;5012769;28;20500;-65
2023/06/16 08:09:03;;;;;;;3.90;3.63;;;34.60;52.00;;;;;;5014486;28;20261;-62
2023/06/16 08:11:28;;;;;;;3.43;3.13;;;34.90;50.50;;;;;;5014699;28;20179;-64
2023/06/16 08:13:54;;;;;;;3.50;3.30;;;35.10;50.10;;;;;;5012677;28;20528;-62
2023/06/16 08:16:20;;;;;;;3.30;3.10;;;35.20;49.80;;;;;;5010311;28;20182;-64
2023/06/16 08:18:45;;;;;;;3.73;3.43;;;35.80;50.80;;;;;;5014420;28;20573;-62
2023/06/16 08:21:11;;;;;;;3.47;3.23;;;36.60;47.90;;;;;;5014471;28;20675;-64
2023/06/16 08:23:36;;;;;;;3.30;3.10;;;36.80;47.20;;;;;;5013364;28;20201;-63
2023/06/16 08:26:04;;;;;;;3.23;3.03;;;36.90;46.20;;;;;;5012439;28;20294;-67
2023/06/16 08:28:30;;;;;;;3.43;3.23;;;36.60;46.80;;;;;;5012809;28;20210;-66
2023/06/16 08:30:56;;;;;;;3.10;2.90;;;36.70;47.30;;;;;;5011420;28;20469;-65
2023/06/16 08:33:21;;;;;;;3.43;3.23;;;37.20;47.30;;;;;;5006865;28;20188;-71
2023/06/16 08:35:47;;;;;;;4.80;4.50;;;37.40;46.30;;;;;;5014032;28;20199;-70
2023/06/16 08:38:12;;;;;;;3.57;3.27;;;37.50;46.70;;;;;;5014099;28;20176;-71
2023/06/16 08:40:38;;;;;;;3.70;3.50;;;37.70;46.40;;;;;;5013489;28;20261;-69
2023/06/16 08:43:11;;;;;;;4.20;3.43;;;37.40;45.50;;;;;;5014402;28;20265;-63
2023/06/16 08:45:37;;;;;;;3.20;3.00;;;37.50;44.50;;;;;;5013767;28;20329;-71
2023/06/16 08:48:04;;;;;;;3.53;3.33;;;37.90;44.80;;;;;;5011945;28;20438;-71
2023/06/16 08:50:30;;;;;;;4.50;4.10;;;38.30;44.90;;;;;;5011927;28;20438;-70
2023/06/16 08:52:57;;;;;;;3.23;3.03;;;38.40;45.20;;;;;;5013381;28;20441;-70
2023/06/16 08:55:24;;;;;;;3.10;2.90;;;38.20;42.80;;;;;;4993705;28;20190;-69
2023/06/16 08:57:54;;;;;;;2.80;2.63;;;37.90;41.30;;;;;;4994681;28;20423;-70
2023/06/16 09:00:20;;;;;;;3.03;2.83;;;37.50;39.20;;;;;;4994336;28;20777;-71
2023/06/16 09:02:48;;;;;;;2.40;2.30;;;37.30;40.00;;;;;;4998749;28;20433;-72
2023/06/16 09:05:16;;;;;;;3.40;3.20;;;37.00;41.30;;;;;;5013480;28;20183;-71
2023/06/16 09:07:42;;;;;;;2.73;2.53;;;36.90;41.60;;;;;;5011507;28;20445;-73
2023/06/16 09:10:08;;;;;;;2.90;2.70;;;36.90;41.50;;;;;;5007016;28;20464;-67
2023/06/16 09:12:35;;;;;;;2.90;2.70;;;37.00;41.40;;;;;;5012307;28;20410;-68
2023/06/16 09:15:05;;;;;;;2.53;2.43;;;36.80;39.60;;;;;;5012347;28;20424;-71
2023/06/16 09:17:33;;;;;;;2.90;2.70;;;36.40;39.30;;;;;;5012634;28;20541;-69
2023/06/16 09:20:00;;;;;;;2.60;2.50;;;36.30;40.50;;;;;;5012056;28;20745;-71
2023/06/16 09:22:26;;;;;;;2.80;2.70;;;36.50;41.30;;;;;;5012099;28;20426;-73
2023/06/16 09:24:58;;;;;;;2.97;2.77;;;36.50;38.50;;;;;;5010484;28;20461;-70
2023/06/16 09:27:52;;;;;;;2.90;2.70;;;36.60;38.90;;;;;;5012782;28;20420;-71
2023/06/16 09:30:20;;;;;;;2.63;2.53;;;36.60;38.20;;;;;;5011906;28;20409;-71
2023/06/16 09:32:47;;;;;;;3.17;2.97;;;36.30;37.60;;;;;;5010740;28;20769;-73
2023/06/16 09:35:24;;;;;;;2.73;2.63;;;36.20;39.40;;;;;;5012168;28;20468;-72
2023/06/16 09:37:58;;;;;;;2.73;2.47;;;36.40;37.70;;;;;;5012550;28;20429;-68
2023/06/16 09:40:31;;;;;;;3.27;2.43;;;36.70;37.80;;;;;;5011374;28;20760;-71
2023/06/16 09:43:04;;;;;;;2.87;2.70;;;36.80;39.30;;;;;;5013342;28;20449;-71
2023/06/16 09:45:32;;;;;;;2.90;2.70;;;37.10;38.10;;;;;;5014635;28;20998;-69
2023/06/16 09:48:02;;;;;;;2.77;2.67;;;37.20;38.80;;;;;;5013179;28;20796;-69
2023/06/16 09:50:30;;;;;;;2.70;2.50;;;37.10;38.60;;;;;;5015432;28;20425;-71
2023/06/16 09:52:57;;;;;;;2.83;2.63;;;37.00;38.10;;;;;;5014544;28;20442;-68
2023/06/16 09:55:27;;;;;;;2.40;2.30;;;37.10;37.80;;;;;;5015521;28;20512;-73
2023/06/16 09:57:53;;;;;;;3.17;3.00;;;37.30;39.00;;;;;;5012678;28;20433;-71
2023/06/16 10:00:19;;;;;;;2.73;2.63;;;37.90;38.80;;;;;;5015106;28;20469;-74
2023/06/16 10:02:47;;;;;;;2.60;2.50;;;38.30;37.50;;;;;;5014158;28;20406;-68
2023/06/16 10:05:15;;;;;;;3.07;2.87;;;38.30;36.70;;;;;;5014089;28;20456;-69
2023/06/16 10:07:45;;;;;;;3.27;3.10;;;37.90;37.90;;;;;;4963691;28;1540524;-67
2023/06/16 10:10:11;;;;;;;2.90;2.80;;;37.30;37.20;;;;;;5013926;28;20187;-68
2023/06/16 10:12:42;;;;;;;3.70;3.47;;;37.20;38.70;;;;;;5014485;28;20437;-69
2023/06/16 10:15:10;;;;;;;2.90;2.77;;;36.70;37.80;;;;;;5015055;28;20446;-69
2023/06/16 10:17:38;;;;;;;3.07;2.90;;;36.70;38.40;;;;;;5015171;28;20808;-75
2023/06/16 10:20:09;;;;;;;3.13;2.90;;;35.90;38.70;;;;;;5015770;28;20422;-76
2023/06/16 10:22:34;;;;;;;2.83;2.60;;;34.80;40.00;;;;;;5012807;28;20515;-71
2023/06/16 10:25:01;;;;;;;2.73;2.53;;;33.40;40.80;;;;;;5016188;28;20849;-67
2023/06/16 10:27:27;;;;;;;3.30;3.00;;;32.40;41.80;;;;;;5015294;28;20262;-69
2023/06/16 10:29:56;;;;;;;2.73;2.53;;;31.80;42.90;;;;;;5015200;28;20575;-72
2023/06/16 10:32:22;;;;;;;3.00;2.80;;;31.70;43.70;;;;;;5012548;28;20415;-68
2023/06/16 10:34:51;;;;;;;3.33;3.10;;;31.70;42.60;;;;;;5007763;28;20453;-69
2023/06/16 10:37:21;;;;;;;3.00;2.80;;;31.60;43.10;;;;;;5009852;28;20257;-69
2023/06/16 10:39:46;;;;;;;2.83;2.63;;;31.70;44.80;;;;;;5015704;28;20401;-69
2023/06/16 10:42:13;;;;;;;2.80;2.60;;;32.10;43.20;;;;;;5014669;28;20483;-70
2023/06/16 10:44:39;;;;;;;2.63;2.47;;;32.70;43.20;;;;;;5015817;28;20190;-70
2023/06/16 10:47:08;;;;;;;2.90;2.70;;;33.00;43.60;;;;;;5013128;28;20930;-69
2023/06/16 10:50:00;;;;;;;3.27;2.93;;;33.50;43.20;;;;;;5014350;28;20379;-70
2023/06/16 10:52:28;;;;;;;3.00;2.77;;;33.50;41.80;;;;;;5015626;28;20470;-69
2023/06/16 10:54:55;;;;;;;3.00;2.80;;;32.80;41.30;;;;;;5014166;28;20445;-68
2023/06/16 10:57:22;;;;;;;2.83;2.63;;;32.10;42.30;;;;;;5015314;28;20494;-69
2023/06/16 11:00:10;;;;;;;3.17;2.87;;;31.50;42.80;;;;;;5013507;28;20802;-70
2023/06/16 11:02:37;;;;;;;2.97;2.77;;;31.50;43.80;;;;;;5010792;28;20491;-70
2023/06/16 11:05:09;;;;;;;3.07;2.80;;;31.70;42.80;;;;;;5013714;28;20536;-68
2023/06/16 11:07:58;;;;;;;2.60;2.40;;;31.70;42.10;;;;;;5009641;28;20490;-67
2023/06/16 11:10:24;;;;;;;3.23;2.10;;;31.10;43.30;;;;;;5011500;28;20454;-71
2023/06/16 11:12:50;;;;;;;2.40;2.30;;;30.80;42.80;;;;;;5010042;28;20426;-69
2023/06/16 11:15:18;;;;;;;2.57;2.37;;;30.70;44.30;;;;;;5014566;28;20907;-67
2023/06/16 11:17:45;;;;;;;3.83;3.57;;;30.50;43.60;;;;;;5013873;28;20429;-69
2023/06/16 11:20:13;;;;;;;3.20;3.00;;;30.20;43.80;;;;;;5015604;28;20427;-70
2023/06/16 11:22:39;;;;;;;2.90;2.70;;;30.00;44.70;;;;;;5012562;28;20495;-69
2023/06/16 11:25:05;;;;;;;3.03;2.57;;;29.90;44.30;;;;;;5012999;28;20473;-67
2023/06/16 11:27:31;;;;;;;2.23;2.10;;;29.80;44.00;;;;;;5014756;28;20454;-67
2023/06/16 11:30:00;;;;;;;2.43;2.33;;;29.60;43.50;;;;;;5014728;28;20408;-68
2023/06/16 11:32:34;;;;;;;2.73;2.30;;;29.40;43.60;;;;;;5015033;28;20409;-62
2023/06/16 11:35:01;;;;;;;3.20;2.90;;;29.20;43.90;;;;;;5014561;28;20810;-62
2023/06/16 11:37:52;;;;;;;2.60;2.40;;;29.10;46.40;;;;;;5011066;28;20440;-62
2023/06/16 11:40:21;;;;;;;2.90;2.33;;;28.90;45.20;;;;;;5008837;28;20433;-66
2023/06/16 11:43:03;;;;;;;2.77;2.47;;;28.80;45.20;;;;;;5005320;28;20426;-61
2023/06/16 11:45:33;;;;;;;3.17;2.90;;;28.80;45.50;;;;;;5005172;28;20427;-61
2023/06/16 11:48:01;;;;;;;2.60;2.23;;;28.90;45.00;;;;;;5007566;28;20538;-63
2023/06/16 11:50:29;;;;;;;2.67;2.47;;;28.80;44.90;;;;;;5011802;28;20438;-67
2023/06/16 11:52:55;;;;;;;2.77;2.57;;;28.60;45.50;;;;;;5014176;28;20445;-63
2023/06/16 11:55:22;;;;;;;2.40;2.20;;;28.50;45.20;;;;;;5010440;28;20516;-62
2023/06/16 11:57:47;;;;;;;2.63;2.33;;;28.20;45.40;;;;;;5014010;28;20174;-62
2023/06/16 12:00:14;;;;;;;2.63;2.43;;;28.00;45.10;;;;;;5014028;28;20514;-62
2023/06/16 12:02:42;;;;;;;2.07;1.90;;;27.80;45.30;;;;;;5012474;28;20180;-62
2023/06/16 12:05:12;;;;;;;2.80;2.60;;;27.70;47.00;;;;;;5012356;28;21024;-62
2023/06/16 12:07:39;;;;;;;2.10;2.00;;;27.70;47.40;;;;;;5008050;28;20453;-62
2023/06/16 12:10:06;;;;;;;2.57;2.37;;;27.70;47.50;;;;;;5011081;28;20773;-62
2023/06/16 12:12:33;;;;;;;2.50;1.93;;;27.70;47.50;;;;;;5008589;28;20443;-63
2023/06/16 12:15:00;;;;;;;2.33;2.13;;;27.70;47.40;;;;;;5010502;28;20471;-63
2023/06/16 12:17:25;;;;;;;3.13;2.83;;;27.70;46.60;;;;;;5010215;28;20549;-71
2023/06/16 12:19:52;;;;;;;3.57;2.80;;;27.70;47.30;;;;;;5006209;28;20492;-67
2023/06/16 12:22:18;;;;;;;2.70;2.50;;;27.80;47.50;;;;;;5008597;28;20172;-66
2023/06/16 12:24:44;;;;;;;2.37;2.23;;;27.90;47.40;;;;;;5009362;28;20516;-67
2023/06/16 12:27:20;;;;;;;2.60;2.40;;;28.00;47.70;;;;;;5006807;28;20926;-65
2023/06/16 12:29:46;;;;;;;2.40;2.20;;;28.10;46.90;;;;;;5014408;28;20200;-64
2023/06/16 12:32:12;;;;;;;2.73;2.53;;;28.10;46.50;;;;;;5012983;28;20412;-66
2023/06/16 12:34:37;;;;;;;2.70;2.30;;;28.00;46.90;;;;;;5013696;28;20192;-65
2023/06/16 12:37:10;;;;;;;2.50;2.30;;;27.90;46.50;;;;;;5013865;28;20212;-66
2023/06/16 12:39:37;;;;;;;2.67;2.47;;;28.00;47.10;;;;;;5014059;28;20185;-69
2023/06/16 12:42:05;;;;;;;2.57;2.37;;;28.10;46.50;;;;;;5013714;28;20482;-68
2023/06/16 12:45:02;;;;;;;2.80;2.60;;;28.30;47.50;;;;;;5013468;28;20446;-66
2023/06/16 12:47:29;;;;;;;1.90;1.80;;;28.40;46.50;;;;;;4986670;28;20437;-66
2023/06/16 12:49:56;;;;;;;2.77;2.57;;;28.30;46.70;;;;;;4994548;28;20492;-66
2023/06/16 12:52:24;;;;;;;2.37;2.17;;;28.10;44.80;;;;;;5006963;28;20429;-66
2023/06/16 12:54:51;;;;;;;2.53;2.40;;;27.80;45.60;;;;;;5012744;28;20440;-67
2023/06/16 12:57:17;;;;;;;2.63;2.43;;;27.60;45.70;;;;;;5012112;28;20520;-66
2023/06/16 12:59:43;;;;;;;2.97;2.70;;;27.40;46.10;;;;;;5013123;28;20395;-66
2023/06/16 13:02:09;;;;;;;2.73;2.47;;;27.20;46.80;;;;;;5013787;28;20417;-68
2023/06/16 13:04:35;;;;;;;2.30;2.20;;;27.00;47.30;;;;;;5013344;28;20206;-68
2023/06/16 13:07:00;;;;;;;3.33;3.03;;;26.90;47.70;;;;;;5012243;28;20449;-65
2023/06/16 13:09:26;;;;;;;4.93;3.00;;;26.80;48.50;;;;;;5010745;28;20675;-67
2023/06/16 13:11:54;;;;;;;2.80;2.50;;;26.80;48.20;;;;;;5013861;28;20206;-67
2023/06/16 13:14:20;;;;;;;2.90;2.70;;;26.90;48.20;;;;;;5012200;28;20203;-67
2023/06/16 13:16:45;;;;;;;2.90;2.70;;;27.10;48.30;;;;;;5010284;28;20967;-66
2023/06/16 13:19:11;;;;;;;2.57;2.47;;;27.20;48.50;;;;;;5013063;28;20638;-64
2023/06/16 13:21:37;;;;;;;2.80;2.60;;;27.30;49.40;;;;;;5013580;28;20167;-65
2023/06/16 13:24:03;;;;;;;2.37;2.17;;;27.30;48.40;;;;;;5012835;28;20175;-66
2023/06/16 13:26:29;;;;;;;4.20;2.77;;;27.20;49.10;;;;;;5013499;28;20180;-65
2023/06/16 13:28:55;;;;;;;2.70;2.50;;;27.00;48.40;;;;;;5012043;28;20427;-64
2023/06/16 13:31:21;;;;;;;2.90;2.70;;;26.80;48.50;;;;;;5013987;28;20428;-70
2023/06/16 13:33:47;;;;;;;2.50;2.30;;;26.60;48.30;;;;;;5011326;28;20185;-66
2023/06/16 13:36:18;;;;;;;2.37;2.20;;;26.60;48.80;;;;;;5013195;28;20458;-66
2023/06/16 13:38:47;;;;;;;3.20;2.90;;;26.60;49.20;;;;;;5012102;28;20426;-65
2023/06/16 13:41:13;;;;;;;2.43;2.23;;;26.70;48.80;;;;;;5013639;28;20410;-65
2023/06/16 13:43:43;;;;;;;4.20;3.80;;;26.70;48.60;;;;;;5011147;28;20492;-65
2023/06/16 13:46:09;;;;;;;3.13;2.40;;;26.90;50.40;;;;;;5013281;28;20509;-66
2023/06/16 13:48:34;;;;;;;2.47;2.27;;;27.00;49.80;;;;;;5011819;28;20437;-65
2023/06/16 13:51:00;;;;;;;2.53;2.33;;;27.10;48.40;;;;;;5013202;28;20221;-65
2023/06/16 13:53:26;;;;;;;2.70;2.50;;;27.10;48.50;;;;;;5012352;28;20180;-65
2023/06/16 13:55:53;;;;;;;3.50;3.20;;;27.20;49.10;;;;;;5012670;28;20294;-66
2023/06/16 13:58:18;;;;;;;2.90;2.70;;;27.30;50.30;;;;;;5012314;28;20423;-65
2023/06/16 14:00:44;;;;;;;2.80;2.60;;;27.40;49.30;;;;;;5013353;28;20413;-66
2023/06/16 14:03:09;;;;;;;3.30;3.00;;;27.50;49.00;;;;;;5013016;28;20247;-66
2023/06/16 14:05:35;;;;;;;7.93;2.90;;;27.50;48.70;;;;;;5012911;28;20200;-65
2023/06/16 14:08:03;;;;;;;2.87;2.57;;;27.40;48.10;;;;;;5013056;28;20540;-67
2023/06/16 14:10:29;;;;;;;2.50;2.30;;;27.20;48.50;;;;;;5011168;28;20208;-65
2023/06/16 14:12:55;;;;;;;2.43;2.23;;;27.10;48.50;;;;;;5012494;28;20532;-66
2023/06/16 14:15:21;;;;;;;2.60;2.40;;;27.00;49.30;;;;;;5011268;28;20195;-65
2023/06/16 14:17:47;;;;;;;3.53;3.10;;;26.90;49.60;;;;;;5012570;28;20443;-64
2023/06/16 14:20:13;;;;;;;3.80;2.63;;;26.70;49.20;;;;;;5012576;28;20182;-65
2023/06/16 14:22:39;;;;;;;3.67;3.47;;;26.40;49.80;;;;;;5012915;28;20538;-65
2023/06/16 14:25:07;;;;;;;2.63;2.43;;;26.30;50.50;;;;;;5011932;28;20457;-67
2023/06/16 14:27:33;;;;;;;2.30;2.20;;;26.00;51.20;;;;;;5012203;28;20426;-66
2023/06/16 14:30:03;;;;;;;2.80;2.70;;;25.90;51.70;;;;;;5010930;28;20444;-67
2023/06/16 14:32:29;;;;;;;3.17;2.87;;;25.80;51.90;;;;;;5008838;28;20444;-66
2023/06/16 14:34:54;;;;;;;3.60;2.37;;;25.60;51.70;;;;;;5012674;28;20461;-65
2023/06/16 14:37:20;;;;;;;2.60;2.40;;;25.60;51.50;;;;;;5013810;28;20638;-68
2023/06/16 14:39:45;;;;;;;2.80;2.60;;;25.50;51.30;;;;;;5013456;28;20257;-65
2023/06/16 14:42:11;;;;;;;4.17;3.23;;;25.50;52.40;;;;;;5016137;28;20225;-64
2023/06/16 14:44:37;;;;;;;2.60;2.40;;;25.60;51.00;;;;;;5014159;28;20194;-65
2023/06/16 14:47:03;;;;;;;2.83;2.63;;;25.70;49.80;;;;;;5016265;28;20645;-65
2023/06/16 14:49:28;;;;;;;3.50;3.20;;;25.70;50.50;;;;;;5016160;28;20529;-67
2023/06/16 14:51:55;;;;;;;3.00;2.80;;;25.70;51.10;;;;;;5016126;28;20241;-66
2023/06/16 14:54:22;;;;;;;3.50;3.20;;;25.70;50.70;;;;;;5014489;28;20202;-68
2023/06/16 14:56:47;;;;;;;2.87;2.67;;;25.60;50.50;;;;;;5015968;28;20460;-64
2023/06/16 14:59:13;;;;;;;2.40;2.30;;;25.50;50.50;;;;;;5014647;28;20927;-64
2023/06/16 15:01:38;;;;;;;3.30;3.10;;;25.50;51.20;;;;;;5015781;28;20175;-68
2023/06/16 15:04:04;;;;;;;3.27;3.07;;;25.50;51.90;;;;;;5015172;28;20179;-67
2023/06/16 15:06:30;;;;;;;3.40;3.10;;;25.60;52.20;;;;;;5014429;28;20281;-65
2023/06/16 15:08:55;;;;;;;4.23;3.93;;;25.60;51.30;;;;;;5015024;28;20272;-66
2023/06/16 15:11:21;;;;;;;4.20;3.80;;;25.70;52.10;;;;;;5014385;28;20184;-65
2023/06/16 15:13:47;;;;;;;2.80;2.60;;;25.80;52.30;;;;;;5015385;28;20183;-65
2023/06/16 15:16:12;;;;;;;2.73;2.60;;;25.90;51.50;;;;;;5015636;28;20692;-71
2023/06/16 15:18:38;;;;;;;2.83;2.63;;;25.90;50.90;;;;;;5015459;28;20516;-70
2023/06/16 15:21:04;;;;;;;3.33;2.80;;;25.90;50.70;;;;;;5013357;28;20174;-66
2023/06/16 15:23:30;;;;;;;3.27;3.07;;;25.80;50.60;;;;;;5000950;28;20461;-71
2023/06/16 15:25:55;;;;;;;2.67;2.47;;;25.80;50.30;;;;;;5012817;28;20862;-67
2023/06/16 15:28:21;;;;;;;2.83;2.63;;;25.80;50.10;;;;;;5012837;28;20179;-68
2023/06/16 15:30:48;;;;;;;2.27;2.07;;;25.80;50.40;;;;;;5013151;28;20183;-69
2023/06/16 15:33:14;;;;;;;2.87;2.73;;;25.80;51.30;;;;;;5007095;28;20179;-69
2023/06/16 15:35:40;;;;;;;2.77;2.67;;;25.90;51.30;;;;;;5010245;28;20450;-66
2023/06/16 15:38:05;;;;;;;2.70;2.30;;;26.00;50.80;;;;;;5003040;28;20449;-65
2023/06/16 15:40:31;;;;;;;3.10;2.80;;;25.90;49.90;;;;;;5011186;28;20185;-65
2023/06/16 15:43:06;;;;;;;2.60;2.50;;;25.80;49.30;;;;;;5008761;28;20192;-66
2023/06/16 15:45:32;;;;;;;3.00;2.80;;;25.60;49.60;;;;;;5010074;28;20202;-66
2023/06/16 15:47:58;;;;;;;2.30;2.10;;;25.50;50.10;;;;;;5010044;28;20920;-65
2023/06/16 15:50:24;;;;;;;2.60;2.40;;;25.50;50.60;;;;;;5005231;28;20186;-65
2023/06/16 15:52:50;;;;;;;2.60;2.40;;;25.50;51.50;;;;;;5009402;28;20175;-64
2023/06/16 15:55:16;;;;;;;2.70;2.50;;;25.50;51.70;;;;;;5013931;28;21006;-63
2023/06/16 15:57:41;;;;;;;2.43;2.23;;;25.60;51.50;;;;;;5013007;28;20270;-63
2023/06/16 16:00:07;;;;;;;3.70;2.70;;;25.50;50.80;;;;;;5015028;28;20186;-63
2023/06/16 16:02:33;;;;;;;2.67;2.37;;;25.50;51.20;;;;;;5011985;28;20258;-64
2023/06/16 16:04:59;;;;;;;3.13;2.87;;;25.50;50.90;;;;;;5013322;28;20536;-65
2023/06/16 16:07:24;;;;;;;2.10;2.00;;;25.50;51.80;;;;;;5013275;28;20699;-64
2023/06/16 16:09:50;;;;;;;2.33;2.23;;;25.60;51.90;;;;;;5012725;28;20680;-67
2023/06/16 16:12:15;;;;;;;3.17;2.90;;;25.60;51.10;;;;;;5006688;28;20175;-65
2023/06/16 16:14:41;;;;;;;2.57;2.43;;;25.50;51.90;;;;;;5011121;28;20269;-66
2023/06/16 16:17:07;;;;;;;3.43;2.67;;;25.40;51.70;;;;;;5013297;28;20237;-66
2023/06/16 16:19:32;;;;;;;3.80;2.97;;;25.40;51.10;;;;;;5012818;28;20671;-65
2023/06/16 16:22:00;;;;;;;3.10;2.90;;;25.40;51.90;;;;;;5011981;28;20186;-67
2023/06/16 16:24:26;;;;;;;3.03;2.83;;;25.40;51.80;;;;;;5011951;28;20576;-67
2023/06/16 16:26:51;;;;;;;4.10;2.40;;;25.50;52.60;;;;;;5012371;28;20404;-71
2023/06/16 16:29:20;;;;;;;3.53;3.30;;;25.50;52.70;;;;;;5013389;28;20263;-65
2023/06/16 16:31:48;;;;;;;3.10;2.80;;;25.50;52.70;;;;;;5014545;28;20260;-68
2023/06/16 16:34:14;;;;;;;2.90;2.70;;;25.50;52.60;;;;;;5012686;28;20460;-65
2023/06/16 16:36:40;;;;;;;2.40;2.30;;;25.50;52.10;;;;;;5012132;28;20523;-61
2023/06/16 16:39:06;;;;;;;2.40;2.20;;;25.40;51.90;;;;;;5012522;28;20175;-70
2023/06/16 16:41:32;;;;;;;2.70;2.60;;;25.40;52.00;;;;;;5013482;28;20182;-68
2023/06/16 16:43:57;;;;;;;2.27;2.17;;;25.40;52.40;;;;;;5009937;28;20796;-69
2023/06/16 16:46:23;;;;;;;2.97;2.77;;;25.40;52.90;;;;;;5011908;28;20211;-69
2023/06/16 16:48:49;;;;;;;3.20;2.90;;;25.30;52.90;;;;;;5014414;28;20633;-69
2023/06/16 16:51:15;;;;;;;2.80;2.17;;;25.30;53.10;;;;;;5013263;28;20460;-64